PBD2615 UUWW-LTAI
Flight info
| Callsign | PBD2615 |
|---|---|
| Flight time | N/A |
| Altitude | 35000 |
| Route | TOGMO3Z TOGMO DCT DOSAG DCT LIDUS DCT MOMER/K0854F360 DCT BINOL G487 ODIRA/N0464F380 UW96 SIN UT61 BAG/N0462F370 UP29 HISAR |
| Aircraft | B738/M-SDE2E3FGHIRWXY/LB1 |
Departure
| Time | 2026-05-01 10:04 |
|---|---|
| Airport | Vnukovo International Airport (UUWW) |
Arrival
| Time | N/A |
|---|---|
| Airport | Antalya International Airport (LTAI) |
| Time | Latitude | Longitude | Altitude | Speed | Heading |
|---|---|---|---|---|---|
| 2026-05-01 09:40 | 55.60432 | 37.28212 | 697 ft | 0 kts | 158° |
| 2026-05-01 09:48 | 55.60440 | 37.28206 | 697 ft | 2 kts | 152° |
| 2026-05-01 09:48 | 55.60454 | 37.28195 | 697 ft | 2 kts | 160° |
| 2026-05-01 09:48 | 55.60468 | 37.28185 | 697 ft | 2 kts | 157° |
| 2026-05-01 09:49 | 55.60482 | 37.28175 | 697 ft | 2 kts | 158° |
| 2026-05-01 09:49 | 55.60494 | 37.28167 | 697 ft | 1 kts | 158° |
| 2026-05-01 09:49 | 55.60507 | 37.28155 | 697 ft | 2 kts | 140° |
| 2026-05-01 09:49 | 55.60517 | 37.28137 | 697 ft | 2 kts | 126° |
| 2026-05-01 09:50 | 55.60524 | 37.28114 | 697 ft | 2 kts | 109° |
| 2026-05-01 09:50 | 55.60527 | 37.28096 | 697 ft | 2 kts | 88° |
| 2026-05-01 09:50 | 55.60526 | 37.28069 | 697 ft | 2 kts | 92° |
| 2026-05-01 09:50 | 55.60527 | 37.28043 | 697 ft | 2 kts | 91° |
| 2026-05-01 09:51 | 55.60527 | 37.28027 | 697 ft | 0 kts | 120° |
| 2026-05-01 09:51 | 55.60536 | 37.28014 | 697 ft | 2 kts | 142° |
| 2026-05-01 09:51 | 55.60547 | 37.27995 | 697 ft | 2 kts | 134° |
| 2026-05-01 09:51 | 55.60554 | 37.27983 | 697 ft | 1 kts | 138° |
| 2026-05-01 09:52 | 55.60557 | 37.27979 | 697 ft | 0 kts | 136° |
| 2026-05-01 09:53 | 55.60555 | 37.27982 | 697 ft | 0 kts | 136° |
| 2026-05-01 09:53 | 55.60548 | 37.27994 | 697 ft | 1 kts | 136° |
| 2026-05-01 09:54 | 55.60535 | 37.28015 | 697 ft | 3 kts | 137° |
| 2026-05-01 09:54 | 55.60527 | 37.28028 | 697 ft | 1 kts | 141° |
| 2026-05-01 09:54 | 55.60515 | 37.28036 | 697 ft | 2 kts | 173° |
| 2026-05-01 09:54 | 55.60493 | 37.28023 | 697 ft | 3 kts | 212° |
| 2026-05-01 09:55 | 55.60471 | 37.27987 | 697 ft | 4 kts | 224° |
| 2026-05-01 09:55 | 55.60446 | 37.27942 | 697 ft | 5 kts | 225° |
| 2026-05-01 09:55 | 55.60407 | 37.27882 | 697 ft | 7 kts | 212° |
| 2026-05-01 09:55 | 55.60348 | 37.27855 | 697 ft | 10 kts | 185° |
| 2026-05-01 09:56 | 55.60267 | 37.27840 | 697 ft | 13 kts | 185° |
| 2026-05-01 09:56 | 55.60177 | 37.27859 | 697 ft | 8 kts | 158° |
| 2026-05-01 09:56 | 55.60128 | 37.27884 | 697 ft | 6 kts | 182° |
| 2026-05-01 09:56 | 55.60095 | 37.27849 | 697 ft | 6 kts | 223° |
| 2026-05-01 09:57 | 55.60049 | 37.27773 | 697 ft | 11 kts | 218° |
| 2026-05-01 09:57 | 55.59972 | 37.27658 | 697 ft | 17 kts | 230° |
| 2026-05-01 09:57 | 55.59896 | 37.27486 | 697 ft | 17 kts | 225° |
| 2026-05-01 09:57 | 55.59818 | 37.27341 | 697 ft | 15 kts | 226° |
| 2026-05-01 09:58 | 55.59737 | 37.27193 | 697 ft | 17 kts | 226° |
| 2026-05-01 09:58 | 55.59648 | 37.27027 | 697 ft | 19 kts | 226° |
| 2026-05-01 09:58 | 55.59552 | 37.26841 | 697 ft | 21 kts | 233° |
| 2026-05-01 09:58 | 55.59489 | 37.26599 | 697 ft | 22 kts | 249° |
| 2026-05-01 09:59 | 55.59429 | 37.26333 | 697 ft | 24 kts | 248° |
| 2026-05-01 09:59 | 55.59364 | 37.26044 | 697 ft | 26 kts | 249° |
| 2026-05-01 09:59 | 55.59300 | 37.25756 | 697 ft | 24 kts | 248° |
| 2026-05-01 09:59 | 55.59240 | 37.25489 | 697 ft | 22 kts | 248° |
| 2026-05-01 10:00 | 55.59184 | 37.25240 | 697 ft | 21 kts | 248° |
| 2026-05-01 10:00 | 55.59132 | 37.25005 | 697 ft | 19 kts | 247° |
| 2026-05-01 10:00 | 55.59082 | 37.24789 | 697 ft | 18 kts | 249° |
| 2026-05-01 10:00 | 55.59037 | 37.24589 | 697 ft | 16 kts | 248° |
| 2026-05-01 10:01 | 55.58993 | 37.24409 | 696 ft | 15 kts | 243° |
| 2026-05-01 10:01 | 55.58947 | 37.24252 | 696 ft | 14 kts | 242° |
| 2026-05-01 10:01 | 55.58904 | 37.24107 | 696 ft | 12 kts | 243° |
| 2026-05-01 10:01 | 55.58866 | 37.23976 | 696 ft | 11 kts | 243° |
| 2026-05-01 10:02 | 55.58833 | 37.23860 | 696 ft | 9 kts | 243° |
| 2026-05-01 10:02 | 55.58790 | 37.23794 | 696 ft | 7 kts | 185° |
| 2026-05-01 10:02 | 55.58746 | 37.23813 | 696 ft | 5 kts | 161° |
| 2026-05-01 10:02 | 55.58712 | 37.23837 | 696 ft | 5 kts | 158° |
| 2026-05-01 10:03 | 55.58672 | 37.23882 | 696 ft | 8 kts | 127° |
| 2026-05-01 10:03 | 55.58673 | 37.23998 | 696 ft | 10 kts | 65° |
| 2026-05-01 10:03 | 55.58710 | 37.24147 | 696 ft | 25 kts | 67° |
| 2026-05-01 10:03 | 55.58880 | 37.24905 | 697 ft | 103 kts | 68° |
| 2026-05-01 10:04 | 55.59230 | 37.26453 | 698 ft | 166 kts | 68° |
| 2026-05-01 10:04 | 55.59699 | 37.28519 | 1042 ft | 191 kts | 65° |
| 2026-05-01 10:04 | 55.60187 | 37.30615 | 2013 ft | 185 kts | 65° |
| 2026-05-01 10:04 | 55.60668 | 37.32743 | 2675 ft | 189 kts | 67° |
| 2026-05-01 10:05 | 55.61161 | 37.34978 | 3084 ft | 204 kts | 66° |
| 2026-05-01 10:05 | 55.61669 | 37.37395 | 3517 ft | 221 kts | 72° |
| 2026-05-01 10:05 | 55.61764 | 37.40199 | 3979 ft | 240 kts | 102° |
| 2026-05-01 10:05 | 55.61016 | 37.42865 | 4542 ft | 254 kts | 126° |
| 2026-05-01 10:06 | 55.59650 | 37.44980 | 5086 ft | 269 kts | 153° |
| 2026-05-01 10:06 | 55.57866 | 37.46002 | 5755 ft | 277 kts | 168° |
| 2026-05-01 10:06 | 55.55966 | 37.46610 | 6527 ft | 281 kts | 169° |
| 2026-05-01 10:06 | 55.54051 | 37.47257 | 7325 ft | 283 kts | 167° |
| 2026-05-01 10:07 | 55.52113 | 37.48001 | 7891 ft | 291 kts | 166° |
| 2026-05-01 10:07 | 55.50141 | 37.48812 | 7999 ft | 293 kts | 165° |
| 2026-05-01 10:07 | 55.48127 | 37.49667 | 8473 ft | 300 kts | 165° |
| 2026-05-01 10:07 | 55.46109 | 37.50525 | 8911 ft | 305 kts | 165° |
| 2026-05-01 10:08 | 55.42077 | 37.52224 | 8996 ft | 293 kts | 165° |
| 2026-05-01 10:08 | 55.40061 | 37.53077 | 9468 ft | 302 kts | 165° |
| 2026-05-01 10:08 | 55.38076 | 37.53915 | 10464 ft | 296 kts | 164° |
| 2026-05-01 10:09 | 55.36093 | 37.55045 | 11127 ft | 300 kts | 152° |
| 2026-05-01 10:09 | 55.34330 | 37.56866 | 11797 ft | 301 kts | 141° |
| 2026-05-01 10:09 | 55.32648 | 37.59079 | 12486 ft | 304 kts | 138° |
| 2026-05-01 10:09 | 55.30978 | 37.61386 | 13067 ft | 310 kts | 138° |
| 2026-05-01 10:10 | 55.29261 | 37.63711 | 13176 ft | 314 kts | 139° |
| 2026-05-01 10:10 | 55.27518 | 37.65986 | 13549 ft | 320 kts | 141° |
| 2026-05-01 10:10 | 55.24004 | 37.70469 | 14543 ft | 336 kts | 140° |
| 2026-05-01 10:11 | 55.22094 | 37.72904 | 15168 ft | 341 kts | 140° |
| 2026-05-01 10:11 | 55.20195 | 37.75309 | 15881 ft | 342 kts | 140° |
| 2026-05-01 10:11 | 55.18247 | 37.77786 | 16494 ft | 346 kts | 139° |
| 2026-05-01 10:11 | 55.16387 | 37.80397 | 17117 ft | 348 kts | 133° |
| 2026-05-01 10:12 | 55.14648 | 37.83269 | 17731 ft | 349 kts | 130° |
| 2026-05-01 10:12 | 55.12958 | 37.86313 | 18342 ft | 351 kts | 128° |
| 2026-05-01 10:12 | 55.09609 | 37.92542 | 19588 ft | 356 kts | 127° |
| 2026-05-01 10:13 | 55.07913 | 37.95670 | 20149 ft | 360 kts | 127° |
| 2026-05-01 10:13 | 55.06170 | 37.98855 | 20768 ft | 362 kts | 128° |
| 2026-05-01 10:13 | 55.04434 | 38.02011 | 21302 ft | 366 kts | 127° |
| 2026-05-01 10:14 | 55.00886 | 38.08398 | 22373 ft | 372 kts | 128° |
| 2026-05-01 10:14 | 54.99085 | 38.11621 | 22919 ft | 374 kts | 128° |
| 2026-05-01 10:14 | 54.97272 | 38.14863 | 23386 ft | 378 kts | 128° |
| 2026-05-01 10:14 | 54.95434 | 38.18144 | 23894 ft | 381 kts | 128° |
| 2026-05-01 10:15 | 54.93594 | 38.21424 | 24367 ft | 384 kts | 128° |
| 2026-05-01 10:15 | 54.91725 | 38.24749 | 24847 ft | 386 kts | 128° |
| 2026-05-01 10:15 | 54.89820 | 38.28137 | 25235 ft | 390 kts | 128° |
| 2026-05-01 10:15 | 54.87914 | 38.31530 | 25795 ft | 388 kts | 127° |
| 2026-05-01 10:16 | 54.86088 | 38.35018 | 26053 ft | 391 kts | 123° |
| 2026-05-01 10:16 | 54.84484 | 38.38700 | 26548 ft | 386 kts | 117° |
| 2026-05-01 10:16 | 54.81683 | 38.46715 | 27164 ft | 390 kts | 112° |
| 2026-05-01 10:17 | 54.80371 | 38.50826 | 27562 ft | 390 kts | 112° |
| 2026-05-01 10:17 | 54.77688 | 38.59122 | 28144 ft | 399 kts | 115° |
| 2026-05-01 10:17 | 54.76060 | 38.62957 | 28434 ft | 407 kts | 125° |
| 2026-05-01 10:18 | 54.71577 | 38.69402 | 28622 ft | 434 kts | 142° |
| 2026-05-01 10:18 | 54.68958 | 38.72176 | 28667 ft | 445 kts | 144° |
| 2026-05-01 10:19 | 54.63468 | 38.77583 | 28749 ft | 465 kts | 146° |
| 2026-05-01 10:19 | 54.57770 | 38.83213 | 28853 ft | 481 kts | 146° |
| 2026-05-01 10:20 | 54.52030 | 38.89003 | 29486 ft | 481 kts | 145° |
| 2026-05-01 10:20 | 54.49173 | 38.91913 | 29789 ft | 481 kts | 145° |
| 2026-05-01 10:20 | 54.46295 | 38.94899 | 30070 ft | 481 kts | 143° |
| 2026-05-01 10:20 | 54.43579 | 38.98083 | 30354 ft | 478 kts | 138° |
| 2026-05-01 10:21 | 54.41015 | 39.01757 | 30651 ft | 473 kts | 132° |
| 2026-05-01 10:21 | 54.36733 | 39.10134 | 31138 ft | 466 kts | 120° |
| 2026-05-01 10:21 | 54.35035 | 39.14768 | 31382 ft | 462 kts | 115° |
| 2026-05-01 10:22 | 54.32491 | 39.24735 | 31874 ft | 458 kts | 105° |
| 2026-05-01 10:22 | 54.30438 | 39.35051 | 32354 ft | 458 kts | 105° |
| 2026-05-01 10:23 | 54.29393 | 39.40164 | 32567 ft | 459 kts | 106° |
| 2026-05-01 10:23 | 54.27142 | 39.50404 | 32950 ft | 462 kts | 108° |
| 2026-05-01 10:23 | 54.25966 | 39.55442 | 33147 ft | 463 kts | 109° |
| 2026-05-01 10:24 | 54.23502 | 39.65660 | 33591 ft | 464 kts | 110° |
| 2026-05-01 10:24 | 54.21022 | 39.75741 | 34066 ft | 464 kts | 110° |
| 2026-05-01 10:25 | 54.18516 | 39.85873 | 34536 ft | 463 kts | 111° |
| 2026-05-01 10:25 | 54.16014 | 39.95942 | 34977 ft | 463 kts | 111° |
| 2026-05-01 10:26 | 54.14753 | 40.00992 | 35130 ft | 464 kts | 111° |
| 2026-05-01 10:26 | 54.13401 | 40.05976 | 35156 ft | 468 kts | 115° |
| 2026-05-01 10:26 | 54.09497 | 40.14822 | 35167 ft | 472 kts | 137° |
| 2026-05-01 10:27 | 54.04092 | 40.21113 | 35164 ft | 473 kts | 148° |
| 2026-05-01 10:28 | 53.95683 | 40.29639 | 35161 ft | 471 kts | 148° |
| 2026-05-01 10:28 | 53.87246 | 40.38238 | 35161 ft | 472 kts | 148° |
| 2026-05-01 10:29 | 53.78847 | 40.46802 | 35161 ft | 473 kts | 148° |
| 2026-05-01 10:30 | 53.67583 | 40.58228 | 35159 ft | 472 kts | 148° |
| 2026-05-01 10:31 | 53.56365 | 40.69541 | 35159 ft | 472 kts | 149° |
| 2026-05-01 10:32 | 53.47957 | 40.77973 | 35158 ft | 472 kts | 149° |
| 2026-05-01 10:33 | 53.36654 | 40.89243 | 35160 ft | 472 kts | 149° |
| 2026-05-01 10:34 | 53.28223 | 40.97605 | 35163 ft | 472 kts | 149° |
| 2026-05-01 10:34 | 53.22592 | 41.03169 | 35159 ft | 471 kts | 149° |
| 2026-05-01 10:35 | 53.14180 | 41.11448 | 35153 ft | 470 kts | 149° |
| 2026-05-01 10:35 | 53.08580 | 41.16939 | 35138 ft | 469 kts | 150° |
| 2026-05-01 10:36 | 53.00144 | 41.25178 | 35136 ft | 469 kts | 150° |
| 2026-05-01 10:37 | 52.94552 | 41.30618 | 35134 ft | 470 kts | 150° |
| 2026-05-01 10:37 | 52.86081 | 41.38829 | 35134 ft | 471 kts | 150° |
| 2026-05-01 10:38 | 52.80462 | 41.44255 | 35135 ft | 470 kts | 150° |
| 2026-05-01 10:38 | 52.74807 | 41.49698 | 35134 ft | 470 kts | 150° |
| 2026-05-01 10:39 | 52.69176 | 41.55103 | 35133 ft | 469 kts | 150° |
| 2026-05-01 10:39 | 52.63537 | 41.60500 | 35131 ft | 469 kts | 150° |
| 2026-05-01 10:40 | 52.57925 | 41.65849 | 35132 ft | 467 kts | 152° |
| 2026-05-01 10:40 | 52.52311 | 41.71185 | 35135 ft | 470 kts | 152° |
| 2026-05-01 10:41 | 52.46661 | 41.76543 | 35134 ft | 470 kts | 152° |
| 2026-05-01 10:42 | 52.38176 | 41.84560 | 35133 ft | 469 kts | 152° |
| 2026-05-01 10:42 | 52.32544 | 41.89862 | 35137 ft | 468 kts | 152° |
| 2026-05-01 10:43 | 52.26946 | 41.95114 | 35138 ft | 468 kts | 152° |
| 2026-05-01 10:43 | 52.21276 | 42.00415 | 35140 ft | 468 kts | 152° |
| 2026-05-01 10:44 | 52.15658 | 42.05656 | 35141 ft | 468 kts | 152° |
| 2026-05-01 10:44 | 52.10017 | 42.10903 | 35136 ft | 468 kts | 152° |
| 2026-05-01 10:45 | 52.04367 | 42.16142 | 35138 ft | 467 kts | 153° |
| 2026-05-01 10:45 | 51.98746 | 42.21341 | 35135 ft | 467 kts | 153° |
| 2026-05-01 10:46 | 51.93138 | 42.26508 | 35135 ft | 467 kts | 153° |
| 2026-05-01 10:46 | 51.87489 | 42.31699 | 35136 ft | 467 kts | 153° |
| 2026-05-01 10:47 | 51.81865 | 42.36853 | 35134 ft | 467 kts | 153° |
| 2026-05-01 10:47 | 51.76236 | 42.41998 | 35136 ft | 467 kts | 153° |
| 2026-05-01 10:48 | 51.70595 | 42.47138 | 35132 ft | 467 kts | 153° |
| 2026-05-01 10:48 | 51.64959 | 42.52257 | 35134 ft | 467 kts | 153° |
| 2026-05-01 10:49 | 51.59329 | 42.57360 | 35140 ft | 467 kts | 154° |
| 2026-05-01 10:49 | 51.53654 | 42.62486 | 35124 ft | 466 kts | 153° |
| 2026-05-01 10:50 | 51.48031 | 42.67549 | 35126 ft | 466 kts | 154° |
| 2026-05-01 10:50 | 51.42384 | 42.72620 | 35124 ft | 466 kts | 154° |
| 2026-05-01 10:51 | 51.36731 | 42.77681 | 35126 ft | 467 kts | 155° |
| 2026-05-01 10:51 | 51.31078 | 42.82724 | 35128 ft | 466 kts | 155° |
| 2026-05-01 10:52 | 51.25422 | 42.87759 | 35121 ft | 466 kts | 154° |
| 2026-05-01 10:52 | 51.19787 | 42.92766 | 35119 ft | 466 kts | 155° |
| 2026-05-01 10:53 | 51.14145 | 42.97758 | 35125 ft | 466 kts | 155° |
| 2026-05-01 10:53 | 51.08481 | 43.02761 | 35124 ft | 466 kts | 155° |
| 2026-05-01 10:54 | 51.02840 | 43.07728 | 35132 ft | 465 kts | 155° |
| 2026-05-01 10:54 | 50.97179 | 43.12697 | 35128 ft | 466 kts | 155° |
| 2026-05-01 10:55 | 50.91537 | 43.17638 | 35132 ft | 465 kts | 155° |
| 2026-05-01 10:55 | 50.85883 | 43.22574 | 35121 ft | 466 kts | 155° |
| 2026-05-01 10:56 | 50.80216 | 43.27506 | 35138 ft | 466 kts | 156° |
| 2026-05-01 10:56 | 50.74553 | 43.32422 | 35130 ft | 465 kts | 156° |
| 2026-05-01 10:57 | 50.68914 | 43.37305 | 35139 ft | 465 kts | 156° |
| 2026-05-01 10:57 | 50.63961 | 43.41581 | 35127 ft | 465 kts | 156° |
| 2026-05-01 10:58 | 50.58576 | 43.46217 | 35125 ft | 467 kts | 156° |
| 2026-05-01 10:58 | 50.52892 | 43.51101 | 35132 ft | 466 kts | 156° |
| 2026-05-01 10:59 | 50.47247 | 43.55933 | 35136 ft | 466 kts | 156° |
| 2026-05-01 10:59 | 50.41561 | 43.60790 | 35130 ft | 465 kts | 156° |
| 2026-05-01 11:00 | 50.35895 | 43.65622 | 35142 ft | 464 kts | 158° |
| 2026-05-01 11:00 | 50.30243 | 43.70425 | 35139 ft | 465 kts | 158° |
| 2026-05-01 11:01 | 50.24584 | 43.75212 | 35148 ft | 463 kts | 158° |
| 2026-05-01 11:01 | 50.18892 | 43.80018 | 35140 ft | 466 kts | 158° |
| 2026-05-01 11:02 | 50.13219 | 43.84797 | 35141 ft | 465 kts | 158° |
| 2026-05-01 11:02 | 50.07534 | 43.89576 | 35148 ft | 466 kts | 159° |
| 2026-05-01 11:03 | 50.01836 | 43.94350 | 35150 ft | 465 kts | 159° |
| 2026-05-01 11:03 | 49.96155 | 43.99103 | 35155 ft | 463 kts | 159° |
| 2026-05-01 11:04 | 49.90509 | 44.03810 | 35151 ft | 462 kts | 159° |
| 2026-05-01 11:04 | 49.84849 | 44.08514 | 35157 ft | 465 kts | 159° |
| 2026-05-01 11:05 | 49.79140 | 44.13243 | 35173 ft | 463 kts | 159° |
| 2026-05-01 11:05 | 49.73483 | 44.17921 | 35147 ft | 464 kts | 159° |
| 2026-05-01 11:06 | 49.67781 | 44.22608 | 35161 ft | 465 kts | 160° |
| 2026-05-01 11:06 | 49.62093 | 44.27281 | 35147 ft | 462 kts | 160° |
| 2026-05-01 11:07 | 49.53551 | 44.34291 | 35159 ft | 464 kts | 160° |
| 2026-05-01 11:07 | 49.47900 | 44.38921 | 35152 ft | 463 kts | 160° |
| 2026-05-01 11:08 | 49.42215 | 44.43554 | 35156 ft | 462 kts | 160° |
| 2026-05-01 11:09 | 49.33682 | 44.50473 | 35148 ft | 463 kts | 160° |
| 2026-05-01 11:09 | 49.28010 | 44.55065 | 35150 ft | 461 kts | 161° |
| 2026-05-01 11:10 | 49.19519 | 44.61913 | 35145 ft | 460 kts | 161° |
| 2026-05-01 11:10 | 49.13821 | 44.66488 | 35160 ft | 462 kts | 162° |
| 2026-05-01 11:11 | 49.08172 | 44.71024 | 35159 ft | 461 kts | 162° |
| 2026-05-01 11:11 | 49.02511 | 44.75550 | 35155 ft | 461 kts | 162° |
| 2026-05-01 11:12 | 48.96868 | 44.80061 | 35168 ft | 461 kts | 162° |
| 2026-05-01 11:12 | 48.91182 | 44.84565 | 35147 ft | 462 kts | 162° |
| 2026-05-01 11:13 | 48.85492 | 44.89084 | 35169 ft | 461 kts | 162° |
| 2026-05-01 11:13 | 48.79846 | 44.93556 | 35155 ft | 461 kts | 162° |
| 2026-05-01 11:14 | 48.74115 | 44.98074 | 35155 ft | 464 kts | 162° |
| 2026-05-01 11:14 | 48.68446 | 45.02548 | 35159 ft | 460 kts | 162° |
| 2026-05-01 11:15 | 48.62760 | 45.07016 | 35156 ft | 462 kts | 162° |
| 2026-05-01 11:15 | 48.57077 | 45.11470 | 35153 ft | 463 kts | 162° |
| 2026-05-01 11:16 | 48.51349 | 45.15943 | 35158 ft | 462 kts | 162° |
| 2026-05-01 11:16 | 48.45676 | 45.20360 | 35154 ft | 460 kts | 162° |
| 2026-05-01 11:17 | 48.39978 | 45.24795 | 35164 ft | 462 kts | 162° |
| 2026-05-01 11:17 | 48.34287 | 45.29211 | 35156 ft | 460 kts | 163° |
| 2026-05-01 11:18 | 48.28593 | 45.33613 | 35161 ft | 462 kts | 162° |
| 2026-05-01 11:18 | 48.22891 | 45.38015 | 35153 ft | 460 kts | 162° |
| 2026-05-01 11:19 | 48.17228 | 45.42374 | 35143 ft | 459 kts | 162° |
| 2026-05-01 11:19 | 48.11546 | 45.46730 | 35153 ft | 459 kts | 162° |
| 2026-05-01 11:20 | 48.05892 | 45.51059 | 35146 ft | 459 kts | 163° |
| 2026-05-01 11:20 | 48.00179 | 45.55419 | 35136 ft | 459 kts | 163° |
| 2026-05-01 11:21 | 47.94511 | 45.59746 | 35141 ft | 460 kts | 162° |
| 2026-05-01 11:21 | 47.88829 | 45.64060 | 35138 ft | 459 kts | 162° |
| 2026-05-01 11:22 | 47.83154 | 45.68362 | 35137 ft | 458 kts | 163° |
| 2026-05-01 11:22 | 47.77485 | 45.72648 | 35067 ft | 459 kts | 163° |
| 2026-05-01 11:23 | 47.71809 | 45.76926 | 35142 ft | 461 kts | 163° |
| 2026-05-01 11:23 | 47.66114 | 45.81215 | 35147 ft | 458 kts | 163° |
| 2026-05-01 11:24 | 47.60414 | 45.85495 | 35138 ft | 459 kts | 163° |
| 2026-05-01 11:25 | 47.51893 | 45.91866 | 35144 ft | 458 kts | 163° |
| 2026-05-01 11:25 | 47.43374 | 45.98223 | 35147 ft | 457 kts | 163° |
| 2026-05-01 11:26 | 47.34846 | 46.04548 | 35143 ft | 458 kts | 163° |
| 2026-05-01 11:27 | 47.29179 | 46.08748 | 35147 ft | 458 kts | 163° |
| 2026-05-01 11:27 | 47.23494 | 46.12944 | 35149 ft | 458 kts | 163° |
| 2026-05-01 11:28 | 47.17792 | 46.17140 | 35148 ft | 459 kts | 162° |
| 2026-05-01 11:28 | 47.12128 | 46.21308 | 35147 ft | 457 kts | 163° |
| 2026-05-01 11:29 | 47.03601 | 46.27602 | 35148 ft | 459 kts | 164° |
| 2026-05-01 11:29 | 46.97774 | 46.31044 | 35139 ft | 448 kts | 169° |
| 2026-05-01 11:30 | 46.94828 | 46.32578 | 35140 ft | 450 kts | 169° |
| 2026-05-01 11:30 | 46.88937 | 46.35598 | 35135 ft | 448 kts | 169° |
| 2026-05-01 11:31 | 46.83065 | 46.38676 | 35135 ft | 450 kts | 169° |
| 2026-05-01 11:31 | 46.77175 | 46.41819 | 35126 ft | 450 kts | 168° |
| 2026-05-01 11:32 | 46.71325 | 46.44971 | 35123 ft | 451 kts | 168° |
| 2026-05-01 11:32 | 46.65429 | 46.48157 | 35119 ft | 452 kts | 168° |
| 2026-05-01 11:33 | 46.59521 | 46.51346 | 35116 ft | 454 kts | 168° |
| 2026-05-01 11:33 | 46.53634 | 46.54525 | 35116 ft | 451 kts | 168° |
| 2026-05-01 11:34 | 46.47760 | 46.57684 | 35111 ft | 454 kts | 168° |
| 2026-05-01 11:34 | 46.41869 | 46.60844 | 35103 ft | 451 kts | 168° |
| 2026-05-01 11:35 | 46.35993 | 46.63994 | 35101 ft | 453 kts | 168° |
| 2026-05-01 11:35 | 46.30058 | 46.67157 | 35096 ft | 453 kts | 168° |
| 2026-05-01 11:36 | 46.24162 | 46.70306 | 35098 ft | 452 kts | 168° |
| 2026-05-01 11:36 | 46.18297 | 46.73424 | 35089 ft | 452 kts | 168° |
| 2026-05-01 11:37 | 46.12358 | 46.76575 | 35086 ft | 453 kts | 168° |
| 2026-05-01 11:37 | 46.06464 | 46.79699 | 35079 ft | 451 kts | 168° |
| 2026-05-01 11:38 | 46.00613 | 46.82791 | 35074 ft | 450 kts | 168° |
| 2026-05-01 11:38 | 45.94727 | 46.85891 | 35077 ft | 450 kts | 168° |
| 2026-05-01 11:39 | 45.88862 | 46.88968 | 35072 ft | 451 kts | 168° |
| 2026-05-01 11:39 | 45.82993 | 46.92044 | 35070 ft | 452 kts | 167° |
| 2026-05-01 11:40 | 45.77090 | 46.95135 | 35071 ft | 451 kts | 167° |
| 2026-05-01 11:40 | 45.71194 | 46.98217 | 35071 ft | 452 kts | 167° |
| 2026-05-01 11:41 | 45.65257 | 47.01309 | 35070 ft | 452 kts | 167° |
| 2026-05-01 11:41 | 45.59375 | 47.04370 | 35070 ft | 450 kts | 167° |
| 2026-05-01 11:42 | 45.53517 | 47.07408 | 35070 ft | 451 kts | 167° |
| 2026-05-01 11:42 | 45.47635 | 47.10445 | 35071 ft | 451 kts | 167° |
| 2026-05-01 11:43 | 45.41697 | 47.13509 | 35072 ft | 452 kts | 167° |
| 2026-05-01 11:43 | 45.35796 | 47.16551 | 35073 ft | 451 kts | 167° |
| 2026-05-01 11:44 | 45.26938 | 47.21102 | 35071 ft | 452 kts | 167° |
| 2026-05-01 11:44 | 45.21023 | 47.24134 | 35069 ft | 452 kts | 166° |
| 2026-05-01 11:45 | 45.15110 | 47.27160 | 35066 ft | 452 kts | 166° |
| 2026-05-01 11:45 | 45.09241 | 47.30150 | 35068 ft | 452 kts | 166° |
| 2026-05-01 11:46 | 45.03314 | 47.33160 | 35077 ft | 452 kts | 166° |
| 2026-05-01 11:46 | 44.97414 | 47.36156 | 35078 ft | 451 kts | 166° |
| 2026-05-01 11:47 | 44.91524 | 47.39145 | 35069 ft | 453 kts | 166° |
| 2026-05-01 11:47 | 44.85585 | 47.42146 | 35073 ft | 453 kts | 166° |
| 2026-05-01 11:48 | 44.79648 | 47.45143 | 35071 ft | 453 kts | 166° |
| 2026-05-01 11:48 | 44.73735 | 47.47951 | 35066 ft | 450 kts | 171° |
| 2026-05-01 11:49 | 44.67648 | 47.48779 | 35066 ft | 433 kts | 191° |
| 2026-05-01 11:49 | 44.61873 | 47.46928 | 35065 ft | 424 kts | 203° |
| 2026-05-01 11:50 | 44.56702 | 47.43267 | 35054 ft | 415 kts | 220° |
| 2026-05-01 11:50 | 44.52609 | 47.37686 | 35052 ft | 410 kts | 232° |
| 2026-05-01 11:51 | 44.49606 | 47.30959 | 35048 ft | 408 kts | 248° |
| 2026-05-01 11:51 | 44.48005 | 47.23391 | 35046 ft | 409 kts | 253° |
| 2026-05-01 11:52 | 44.46666 | 47.15666 | 35038 ft | 411 kts | 262° |
| 2026-05-01 11:52 | 44.46295 | 47.07735 | 35035 ft | 412 kts | 265° |
| 2026-05-01 11:53 | 44.45951 | 46.99714 | 35033 ft | 411 kts | 263° |
| 2026-05-01 11:53 | 44.45459 | 46.91794 | 35030 ft | 411 kts | 263° |
| 2026-05-01 11:54 | 44.44869 | 46.83865 | 35029 ft | 411 kts | 262° |
| 2026-05-01 11:54 | 44.44233 | 46.75928 | 35027 ft | 411 kts | 262° |
| 2026-05-01 11:55 | 44.43583 | 46.68061 | 35021 ft | 411 kts | 262° |
| 2026-05-01 11:55 | 44.42914 | 46.60098 | 35015 ft | 410 kts | 262° |
| 2026-05-01 11:56 | 44.42245 | 46.52205 | 35012 ft | 409 kts | 262° |
| 2026-05-01 11:56 | 44.41571 | 46.44344 | 35014 ft | 411 kts | 262° |
| 2026-05-01 11:57 | 44.40890 | 46.36443 | 35004 ft | 410 kts | 262° |
| 2026-05-01 11:57 | 44.40205 | 46.28532 | 35001 ft | 410 kts | 261° |
| 2026-05-01 11:58 | 44.39512 | 46.20622 | 35002 ft | 411 kts | 261° |
| 2026-05-01 11:59 | 44.38457 | 46.08753 | 34992 ft | 412 kts | 261° |
| 2026-05-01 11:59 | 44.37753 | 46.00876 | 34996 ft | 412 kts | 261° |
| 2026-05-01 12:00 | 44.36677 | 45.88960 | 34985 ft | 412 kts | 261° |
| 2026-05-01 12:01 | 44.35586 | 45.77081 | 34988 ft | 411 kts | 261° |
| 2026-05-01 12:01 | 44.34856 | 45.69209 | 34985 ft | 410 kts | 261° |
| 2026-05-01 12:02 | 44.34126 | 45.61362 | 34986 ft | 409 kts | 261° |
| 2026-05-01 12:02 | 44.33386 | 45.53465 | 34977 ft | 410 kts | 261° |
| 2026-05-01 12:03 | 44.32643 | 45.45596 | 34972 ft | 410 kts | 261° |
| 2026-05-01 12:03 | 44.31898 | 45.37772 | 34970 ft | 409 kts | 261° |
| 2026-05-01 12:04 | 44.31147 | 45.29901 | 34970 ft | 409 kts | 259° |
| 2026-05-01 12:04 | 44.30390 | 45.22084 | 34968 ft | 409 kts | 260° |
| 2026-05-01 12:05 | 44.29624 | 45.14232 | 34969 ft | 409 kts | 260° |
| 2026-05-01 12:05 | 44.28466 | 45.02439 | 34967 ft | 409 kts | 259° |
| 2026-05-01 12:06 | 44.27692 | 44.94632 | 34965 ft | 409 kts | 260° |
| 2026-05-01 12:06 | 44.26912 | 44.86806 | 34970 ft | 408 kts | 260° |
| 2026-05-01 12:07 | 44.26125 | 44.78984 | 34971 ft | 409 kts | 260° |
| 2026-05-01 12:07 | 44.25325 | 44.71093 | 34976 ft | 409 kts | 259° |
| 2026-05-01 12:08 | 44.24527 | 44.63265 | 34975 ft | 409 kts | 260° |
| 2026-05-01 12:08 | 44.23722 | 44.55434 | 34977 ft | 408 kts | 259° |
| 2026-05-01 12:09 | 44.22916 | 44.47628 | 34986 ft | 408 kts | 259° |
| 2026-05-01 12:09 | 44.22105 | 44.39833 | 34978 ft | 408 kts | 259° |
| 2026-05-01 12:10 | 44.20874 | 44.28112 | 34978 ft | 408 kts | 259° |
| 2026-05-01 12:11 | 44.19637 | 44.16442 | 34993 ft | 407 kts | 259° |
| 2026-05-01 12:11 | 44.18805 | 44.08643 | 34983 ft | 408 kts | 259° |
| 2026-05-01 12:12 | 44.17969 | 44.00864 | 34982 ft | 406 kts | 259° |
| 2026-05-01 12:12 | 44.17132 | 43.93141 | 34981 ft | 405 kts | 259° |
| 2026-05-01 12:13 | 44.16288 | 43.85395 | 34980 ft | 407 kts | 258° |
| 2026-05-01 12:13 | 44.15435 | 43.77629 | 34976 ft | 409 kts | 258° |
| 2026-05-01 12:14 | 44.14571 | 43.69828 | 34973 ft | 409 kts | 258° |
| 2026-05-01 12:14 | 44.13699 | 43.62006 | 34985 ft | 409 kts | 258° |
| 2026-05-01 12:15 | 44.12828 | 43.54233 | 34988 ft | 409 kts | 258° |
| 2026-05-01 12:15 | 44.11954 | 43.46470 | 34984 ft | 408 kts | 258° |
| 2026-05-01 12:16 | 44.11070 | 43.38686 | 34993 ft | 410 kts | 259° |
| 2026-05-01 12:16 | 44.10175 | 43.30833 | 34989 ft | 410 kts | 258° |
| 2026-05-01 12:17 | 44.09282 | 43.23055 | 34995 ft | 410 kts | 258° |
| 2026-05-01 12:17 | 44.08386 | 43.15287 | 34995 ft | 408 kts | 258° |
| 2026-05-01 12:18 | 44.07483 | 43.07497 | 34995 ft | 410 kts | 258° |
| 2026-05-01 12:18 | 44.06569 | 42.99685 | 35000 ft | 410 kts | 258° |
| 2026-05-01 12:19 | 44.05647 | 42.91861 | 34992 ft | 410 kts | 258° |
| 2026-05-01 12:19 | 44.04727 | 42.84082 | 34993 ft | 411 kts | 258° |
| 2026-05-01 12:20 | 44.03798 | 42.76272 | 34983 ft | 410 kts | 258° |
| 2026-05-01 12:20 | 44.02865 | 42.68494 | 34982 ft | 411 kts | 258° |
| 2026-05-01 12:21 | 44.01920 | 42.60647 | 34960 ft | 410 kts | 258° |
| 2026-05-01 12:21 | 44.00980 | 42.52889 | 34967 ft | 410 kts | 258° |
| 2026-05-01 12:22 | 44.00034 | 42.45107 | 34959 ft | 410 kts | 258° |
| 2026-05-01 12:22 | 43.99077 | 42.37337 | 34959 ft | 407 kts | 258° |
| 2026-05-01 12:23 | 43.98122 | 42.29605 | 34961 ft | 408 kts | 257° |
| 2026-05-01 12:23 | 43.97163 | 42.21860 | 34953 ft | 407 kts | 257° |
| 2026-05-01 12:24 | 43.96199 | 42.14126 | 34948 ft | 407 kts | 257° |
| 2026-05-01 12:24 | 43.95235 | 42.06451 | 34958 ft | 406 kts | 257° |
| 2026-05-01 12:25 | 43.93775 | 41.94900 | 34952 ft | 406 kts | 257° |
| 2026-05-01 12:26 | 43.92799 | 41.87207 | 34950 ft | 405 kts | 257° |
| 2026-05-01 12:26 | 43.91333 | 41.75714 | 34954 ft | 406 kts | 257° |
| 2026-05-01 12:27 | 43.89839 | 41.64182 | 34953 ft | 406 kts | 258° |
| 2026-05-01 12:28 | 43.88349 | 41.52658 | 34946 ft | 406 kts | 258° |
| 2026-05-01 12:29 | 43.86839 | 41.41171 | 34951 ft | 405 kts | 257° |
| 2026-05-01 12:29 | 43.85312 | 41.29716 | 34953 ft | 403 kts | 257° |
| 2026-05-01 12:30 | 43.83788 | 41.18332 | 34957 ft | 404 kts | 257° |
| 2026-05-01 12:31 | 43.82751 | 41.10676 | 34953 ft | 404 kts | 257° |
| 2026-05-01 12:31 | 43.81729 | 41.03103 | 34960 ft | 403 kts | 257° |
| 2026-05-01 12:32 | 43.80721 | 40.95687 | 34953 ft | 401 kts | 257° |
| 2026-05-01 12:32 | 43.79208 | 40.84573 | 34958 ft | 402 kts | 257° |
| 2026-05-01 12:33 | 43.78160 | 40.76980 | 34971 ft | 402 kts | 257° |
| 2026-05-01 12:33 | 43.77105 | 40.69390 | 34977 ft | 402 kts | 257° |
| 2026-05-01 12:34 | 43.76056 | 40.61860 | 34968 ft | 401 kts | 256° |
| 2026-05-01 12:34 | 43.75005 | 40.54291 | 34958 ft | 400 kts | 256° |
| 2026-05-01 12:35 | 43.73953 | 40.46762 | 34952 ft | 401 kts | 256° |
| 2026-05-01 12:35 | 43.72889 | 40.39239 | 34948 ft | 399 kts | 256° |
| 2026-05-01 12:36 | 43.71827 | 40.31739 | 34950 ft | 400 kts | 256° |
| 2026-05-01 12:36 | 43.70743 | 40.24204 | 34951 ft | 401 kts | 255° |
| 2026-05-01 12:37 | 43.69658 | 40.16659 | 34959 ft | 400 kts | 255° |
| 2026-05-01 12:37 | 43.68286 | 40.09282 | 34964 ft | 396 kts | 248° |
| 2026-05-01 12:38 | 43.66184 | 40.02325 | 34970 ft | 396 kts | 244° |
| 2026-05-01 12:38 | 43.63870 | 39.95455 | 34961 ft | 395 kts | 243° |
| 2026-05-01 12:39 | 43.61571 | 39.88594 | 34960 ft | 396 kts | 244° |
| 2026-05-01 12:39 | 43.59300 | 39.81681 | 34952 ft | 395 kts | 244° |
| 2026-05-01 12:40 | 43.57044 | 39.74812 | 34949 ft | 396 kts | 244° |
| 2026-05-01 12:40 | 43.54763 | 39.67889 | 34950 ft | 396 kts | 244° |
| 2026-05-01 12:41 | 43.52494 | 39.61041 | 34947 ft | 397 kts | 244° |
| 2026-05-01 12:41 | 43.50197 | 39.54146 | 34950 ft | 396 kts | 244° |
| 2026-05-01 12:42 | 43.47900 | 39.47270 | 34955 ft | 396 kts | 243° |
| 2026-05-01 12:42 | 43.45589 | 39.40364 | 34957 ft | 398 kts | 244° |
| 2026-05-01 12:43 | 43.43275 | 39.33484 | 34958 ft | 397 kts | 243° |
| 2026-05-01 12:43 | 43.40972 | 39.26614 | 34957 ft | 397 kts | 243° |
| 2026-05-01 12:44 | 43.38681 | 39.19797 | 34964 ft | 396 kts | 244° |
| 2026-05-01 12:45 | 43.34061 | 39.06031 | 34970 ft | 398 kts | 245° |
| 2026-05-01 12:45 | 43.32062 | 38.98978 | 34973 ft | 398 kts | 247° |
| 2026-05-01 12:46 | 43.30138 | 38.91885 | 34978 ft | 399 kts | 247° |
| 2026-05-01 12:46 | 43.28182 | 38.84740 | 34976 ft | 400 kts | 246° |
| 2026-05-01 12:47 | 43.26197 | 38.77649 | 34976 ft | 399 kts | 246° |
| 2026-05-01 12:47 | 43.24189 | 38.70586 | 34977 ft | 401 kts | 246° |
| 2026-05-01 12:48 | 43.22152 | 38.63482 | 34981 ft | 402 kts | 246° |
| 2026-05-01 12:48 | 43.20097 | 38.56415 | 34984 ft | 399 kts | 246° |
| 2026-05-01 12:49 | 43.18030 | 38.49341 | 34983 ft | 399 kts | 246° |
| 2026-05-01 12:49 | 43.15984 | 38.42300 | 34987 ft | 399 kts | 246° |
| 2026-05-01 12:50 | 43.13928 | 38.35251 | 34995 ft | 400 kts | 246° |
| 2026-05-01 12:50 | 43.11869 | 38.28205 | 34991 ft | 400 kts | 245° |
| 2026-05-01 12:51 | 43.09789 | 38.21164 | 34999 ft | 400 kts | 245° |
| 2026-05-01 12:52 | 43.06694 | 38.10605 | 34996 ft | 402 kts | 245° |
| 2026-05-01 12:52 | 43.03628 | 37.99972 | 35001 ft | 402 kts | 245° |
| 2026-05-01 12:53 | 43.00528 | 37.89368 | 35010 ft | 402 kts | 245° |
| 2026-05-01 12:54 | 42.98441 | 37.82315 | 35017 ft | 401 kts | 245° |
| 2026-05-01 12:54 | 42.95270 | 37.71741 | 35016 ft | 401 kts | 245° |
| 2026-05-01 12:55 | 42.92120 | 37.61211 | 35024 ft | 400 kts | 245° |
| 2026-05-01 12:56 | 42.90027 | 37.54253 | 35027 ft | 401 kts | 245° |
| 2026-05-01 12:56 | 42.87921 | 37.47229 | 35027 ft | 400 kts | 245° |
| 2026-05-01 12:57 | 42.85796 | 37.40245 | 35032 ft | 399 kts | 245° |
| 2026-05-01 12:57 | 42.82613 | 37.29796 | 35036 ft | 398 kts | 244° |
| 2026-05-01 12:58 | 42.80501 | 37.22836 | 35038 ft | 400 kts | 244° |
| 2026-05-01 12:59 | 42.77321 | 37.12394 | 35039 ft | 399 kts | 244° |
| 2026-05-01 12:59 | 42.74118 | 37.01938 | 35043 ft | 401 kts | 244° |
| 2026-05-01 13:00 | 42.70885 | 36.91492 | 35048 ft | 400 kts | 244° |
| 2026-05-01 13:01 | 42.67301 | 36.81339 | 35054 ft | 398 kts | 240° |
| 2026-05-01 13:02 | 42.63583 | 36.71324 | 35055 ft | 396 kts | 241° |
| 2026-05-01 13:07 | 42.36613 | 35.98233 | 35057 ft | 394 kts | 240° |
| 2026-05-01 13:08 | 42.34137 | 35.91611 | 35059 ft | 395 kts | 240° |
| 2026-05-01 13:08 | 42.31656 | 35.84992 | 35065 ft | 395 kts | 240° |
| 2026-05-01 13:09 | 42.29179 | 35.78414 | 35065 ft | 396 kts | 240° |
| 2026-05-01 13:09 | 42.26708 | 35.71845 | 35067 ft | 395 kts | 240° |
| 2026-05-01 13:10 | 42.24226 | 35.65257 | 35072 ft | 395 kts | 240° |
| 2026-05-01 13:10 | 42.21719 | 35.58625 | 35069 ft | 397 kts | 240° |
| 2026-05-01 13:11 | 42.19232 | 35.52056 | 35077 ft | 394 kts | 240° |
| 2026-05-01 13:11 | 42.16727 | 35.45476 | 35080 ft | 395 kts | 240° |
| 2026-05-01 13:12 | 42.14223 | 35.38903 | 35089 ft | 395 kts | 240° |
| 2026-05-01 13:12 | 42.11745 | 35.32368 | 35087 ft | 394 kts | 240° |
| 2026-05-01 13:13 | 42.09252 | 35.25805 | 35095 ft | 396 kts | 239° |
| 2026-05-01 13:13 | 42.06748 | 35.19234 | 35086 ft | 394 kts | 240° |
| 2026-05-01 13:14 | 42.04220 | 35.12694 | 35099 ft | 394 kts | 238° |
| 2026-05-01 13:14 | 42.01241 | 35.06609 | 35099 ft | 391 kts | 228° |
| 2026-05-01 13:15 | 41.97359 | 35.01442 | 35091 ft | 390 kts | 221° |
| 2026-05-01 13:15 | 41.93306 | 34.96704 | 35099 ft | 389 kts | 221° |
| 2026-05-01 13:16 | 41.89219 | 34.91896 | 35074 ft | 389 kts | 221° |
| 2026-05-01 13:16 | 41.85176 | 34.87086 | 35065 ft | 391 kts | 221° |
| 2026-05-01 13:17 | 41.77055 | 34.77413 | 35032 ft | 392 kts | 221° |
| 2026-05-01 13:18 | 41.70987 | 34.70191 | 35016 ft | 392 kts | 221° |
| 2026-05-01 13:18 | 41.66910 | 34.65351 | 35021 ft | 393 kts | 221° |
| 2026-05-01 13:19 | 41.62827 | 34.60510 | 35009 ft | 392 kts | 221° |
| 2026-05-01 13:20 | 41.56699 | 34.53266 | 35007 ft | 392 kts | 221° |
| 2026-05-01 13:20 | 41.52629 | 34.48438 | 35013 ft | 392 kts | 222° |
| 2026-05-01 13:21 | 41.46510 | 34.41168 | 35006 ft | 393 kts | 222° |
| 2026-05-01 13:21 | 41.42442 | 34.36345 | 35012 ft | 393 kts | 222° |
| 2026-05-01 13:22 | 41.38350 | 34.31507 | 34994 ft | 392 kts | 221° |
| 2026-05-01 13:22 | 41.34260 | 34.26684 | 34999 ft | 394 kts | 221° |
| 2026-05-01 13:23 | 41.30190 | 34.21899 | 34990 ft | 393 kts | 220° |
| 2026-05-01 13:23 | 41.26090 | 34.17088 | 34980 ft | 395 kts | 221° |
| 2026-05-01 13:24 | 41.21977 | 34.12282 | 34977 ft | 393 kts | 220° |
| 2026-05-01 13:25 | 41.15828 | 34.05100 | 34999 ft | 395 kts | 220° |
| 2026-05-01 13:25 | 41.11719 | 34.00308 | 34990 ft | 394 kts | 220° |
| 2026-05-01 13:26 | 41.07578 | 33.95489 | 34973 ft | 397 kts | 220° |
| 2026-05-01 13:26 | 41.03445 | 33.90680 | 34998 ft | 397 kts | 221° |
| 2026-05-01 13:27 | 40.99288 | 33.85854 | 34986 ft | 397 kts | 221° |
| 2026-05-01 13:27 | 40.93061 | 33.78659 | 34979 ft | 398 kts | 220° |
| 2026-05-01 13:28 | 40.86820 | 33.71467 | 34977 ft | 399 kts | 220° |
| 2026-05-01 13:29 | 40.78460 | 33.61844 | 34967 ft | 401 kts | 221° |
| 2026-05-01 13:31 | 40.65835 | 33.47393 | 34978 ft | 401 kts | 221° |
| 2026-05-01 13:32 | 40.55260 | 33.35342 | 34966 ft | 402 kts | 222° |
| 2026-05-01 13:33 | 40.44687 | 33.23340 | 34978 ft | 402 kts | 221° |
| 2026-05-01 13:34 | 40.36161 | 33.13707 | 34968 ft | 405 kts | 221° |
| 2026-05-01 13:35 | 40.29766 | 33.06517 | 34978 ft | 405 kts | 221° |
| 2026-05-01 13:36 | 40.23363 | 32.99334 | 34997 ft | 405 kts | 221° |
| 2026-05-01 13:36 | 40.16934 | 32.92121 | 34991 ft | 407 kts | 222° |
| 2026-05-01 13:37 | 40.12642 | 32.87319 | 34987 ft | 406 kts | 222° |
| 2026-05-01 13:37 | 40.08325 | 32.82570 | 34993 ft | 408 kts | 220° |
| 2026-05-01 13:38 | 40.01057 | 32.76812 | 34982 ft | 411 kts | 210° |
| 2026-05-01 13:39 | 39.95926 | 32.73489 | 34979 ft | 413 kts | 210° |
| 2026-05-01 13:39 | 39.90775 | 32.70103 | 34974 ft | 414 kts | 210° |
| 2026-05-01 13:40 | 39.85668 | 32.66702 | 34971 ft | 415 kts | 211° |
| 2026-05-01 13:40 | 39.80533 | 32.63276 | 34966 ft | 415 kts | 211° |
| 2026-05-01 13:41 | 39.75402 | 32.59856 | 34963 ft | 416 kts | 211° |
| 2026-05-01 13:41 | 39.70267 | 32.56442 | 34957 ft | 416 kts | 211° |
| 2026-05-01 13:42 | 39.65093 | 32.53005 | 34947 ft | 417 kts | 211° |
| 2026-05-01 13:42 | 39.59920 | 32.49575 | 34935 ft | 419 kts | 211° |
| 2026-05-01 13:43 | 39.54752 | 32.46157 | 34946 ft | 419 kts | 211° |
| 2026-05-01 13:43 | 39.49553 | 32.42725 | 34949 ft | 418 kts | 211° |
| 2026-05-01 13:44 | 39.44392 | 32.39319 | 34948 ft | 420 kts | 211° |
| 2026-05-01 13:44 | 39.39193 | 32.35892 | 34946 ft | 420 kts | 211° |
| 2026-05-01 13:45 | 39.33969 | 32.32463 | 34952 ft | 422 kts | 211° |
| 2026-05-01 13:45 | 39.28759 | 32.29069 | 34945 ft | 421 kts | 211° |
| 2026-05-01 13:46 | 39.23547 | 32.25680 | 34959 ft | 422 kts | 211° |
| 2026-05-01 13:46 | 39.18301 | 32.22275 | 34961 ft | 421 kts | 211° |
| 2026-05-01 13:47 | 39.13054 | 32.18872 | 34955 ft | 422 kts | 211° |
| 2026-05-01 13:47 | 39.07838 | 32.15498 | 34954 ft | 421 kts | 211° |
| 2026-05-01 13:48 | 39.02616 | 32.12128 | 34959 ft | 419 kts | 211° |
| 2026-05-01 13:48 | 38.97396 | 32.08753 | 34953 ft | 422 kts | 212° |
| 2026-05-01 13:49 | 38.92142 | 32.05365 | 34957 ft | 423 kts | 212° |
| 2026-05-01 13:49 | 38.86880 | 32.01980 | 34953 ft | 421 kts | 212° |
| 2026-05-01 13:50 | 38.81639 | 31.98612 | 34964 ft | 422 kts | 212° |
| 2026-05-01 13:50 | 38.76395 | 31.95251 | 34956 ft | 422 kts | 212° |
| 2026-05-01 13:51 | 38.71154 | 31.91898 | 34961 ft | 423 kts | 212° |
| 2026-05-01 13:51 | 38.65884 | 31.88534 | 34954 ft | 422 kts | 212° |
| 2026-05-01 13:52 | 38.60637 | 31.85182 | 34970 ft | 423 kts | 213° |
| 2026-05-01 13:52 | 38.55369 | 31.81823 | 34977 ft | 424 kts | 213° |
| 2026-05-01 13:53 | 38.50342 | 31.78629 | 34978 ft | 424 kts | 213° |
| 2026-05-01 13:53 | 38.42431 | 31.73609 | 34832 ft | 419 kts | 213° |
| 2026-05-01 13:54 | 38.39840 | 31.71973 | 34416 ft | 415 kts | 213° |
| 2026-05-01 13:54 | 38.37280 | 31.70354 | 33749 ft | 416 kts | 213° |
| 2026-05-01 13:54 | 38.34676 | 31.68707 | 33009 ft | 416 kts | 213° |
| 2026-05-01 13:54 | 38.32089 | 31.67068 | 32270 ft | 417 kts | 212° |
| 2026-05-01 13:55 | 38.29503 | 31.65429 | 31501 ft | 418 kts | 212° |
| 2026-05-01 13:55 | 38.26918 | 31.63794 | 30710 ft | 420 kts | 212° |
| 2026-05-01 13:55 | 38.24310 | 31.62146 | 29849 ft | 421 kts | 212° |
| 2026-05-01 13:55 | 38.21664 | 31.60479 | 28944 ft | 423 kts | 211° |
| 2026-05-01 13:56 | 38.19060 | 31.58843 | 28051 ft | 424 kts | 211° |
| 2026-05-01 13:56 | 38.16416 | 31.57199 | 27122 ft | 425 kts | 210° |
| 2026-05-01 13:56 | 38.13702 | 31.55683 | 26168 ft | 429 kts | 206° |
| 2026-05-01 13:56 | 38.10830 | 31.54549 | 25287 ft | 433 kts | 198° |
| 2026-05-01 13:57 | 38.07926 | 31.53940 | 25021 ft | 422 kts | 192° |
| 2026-05-01 13:57 | 38.05051 | 31.53626 | 24989 ft | 405 kts | 189° |
| 2026-05-01 13:57 | 38.02287 | 31.53440 | 24987 ft | 387 kts | 188° |
| 2026-05-01 13:57 | 37.99652 | 31.53305 | 24991 ft | 370 kts | 188° |
| 2026-05-01 13:58 | 37.97151 | 31.53181 | 24995 ft | 354 kts | 189° |
| 2026-05-01 13:58 | 37.94996 | 31.53066 | 24993 ft | 342 kts | 189° |
| 2026-05-01 13:58 | 37.92779 | 31.52933 | 25002 ft | 340 kts | 189° |
| 2026-05-01 13:58 | 37.90382 | 31.52773 | 25004 ft | 347 kts | 190° |
| 2026-05-01 13:59 | 37.87947 | 31.52607 | 25001 ft | 350 kts | 190° |
| 2026-05-01 13:59 | 37.85559 | 31.52453 | 24995 ft | 348 kts | 190° |
| 2026-05-01 13:59 | 37.83117 | 31.52299 | 24998 ft | 348 kts | 190° |
| 2026-05-01 13:59 | 37.80707 | 31.52149 | 25005 ft | 349 kts | 189° |
| 2026-05-01 14:00 | 37.78297 | 31.51997 | 24998 ft | 348 kts | 189° |
| 2026-05-01 14:00 | 37.75880 | 31.51809 | 24998 ft | 346 kts | 191° |
| 2026-05-01 14:00 | 37.73473 | 31.51507 | 24996 ft | 347 kts | 193° |
| 2026-05-01 14:00 | 37.71091 | 31.51144 | 24999 ft | 347 kts | 193° |
| 2026-05-01 14:01 | 37.68691 | 31.50772 | 24996 ft | 346 kts | 194° |
| 2026-05-01 14:01 | 37.66279 | 31.50409 | 25000 ft | 347 kts | 193° |
| 2026-05-01 14:01 | 37.63907 | 31.50062 | 24998 ft | 348 kts | 193° |
| 2026-05-01 14:01 | 37.61476 | 31.49713 | 24999 ft | 348 kts | 193° |
| 2026-05-01 14:02 | 37.59069 | 31.49372 | 24999 ft | 349 kts | 193° |
| 2026-05-01 14:02 | 37.57869 | 31.49202 | 24998 ft | 350 kts | 193° |
| 2026-05-01 14:02 | 37.55440 | 31.48860 | 24999 ft | 350 kts | 193° |
| 2026-05-01 14:02 | 37.53042 | 31.48524 | 24997 ft | 349 kts | 193° |
| 2026-05-01 14:03 | 37.50621 | 31.48187 | 24998 ft | 349 kts | 193° |
| 2026-05-01 14:03 | 37.48214 | 31.47853 | 24990 ft | 348 kts | 193° |
| 2026-05-01 14:03 | 37.45814 | 31.47518 | 24987 ft | 348 kts | 193° |
| 2026-05-01 14:03 | 37.43383 | 31.47176 | 24995 ft | 350 kts | 193° |
| 2026-05-01 14:04 | 37.40963 | 31.46837 | 24998 ft | 350 kts | 194° |
| 2026-05-01 14:04 | 37.38545 | 31.46502 | 24996 ft | 348 kts | 193° |
| 2026-05-01 14:04 | 37.36159 | 31.46174 | 24994 ft | 347 kts | 193° |
| 2026-05-01 14:04 | 37.33762 | 31.45843 | 24999 ft | 350 kts | 193° |
| 2026-05-01 14:05 | 37.31309 | 31.45503 | 24993 ft | 351 kts | 194° |
| 2026-05-01 14:05 | 37.28912 | 31.45168 | 24994 ft | 351 kts | 193° |
| 2026-05-01 14:05 | 37.26479 | 31.44829 | 24995 ft | 350 kts | 194° |
| 2026-05-01 14:05 | 37.24073 | 31.44493 | 25002 ft | 350 kts | 193° |
| 2026-05-01 14:06 | 37.21623 | 31.44151 | 25001 ft | 352 kts | 194° |
| 2026-05-01 14:06 | 37.19178 | 31.43811 | 24998 ft | 352 kts | 193° |
| 2026-05-01 14:06 | 37.16750 | 31.43476 | 25002 ft | 351 kts | 193° |
| 2026-05-01 14:06 | 37.14348 | 31.43147 | 25001 ft | 352 kts | 194° |
| 2026-05-01 14:07 | 37.11913 | 31.42812 | 24999 ft | 354 kts | 194° |
| 2026-05-01 14:07 | 37.09516 | 31.42254 | 24978 ft | 344 kts | 207° |
| 2026-05-01 14:07 | 37.07484 | 31.40828 | 24986 ft | 329 kts | 227° |
| 2026-05-01 14:08 | 37.05549 | 31.35954 | 24977 ft | 318 kts | 268° |
| 2026-05-01 14:08 | 37.05900 | 31.33256 | 24967 ft | 321 kts | 289° |
| 2026-05-01 14:08 | 37.07048 | 31.30826 | 24978 ft | 328 kts | 302° |
| 2026-05-01 14:08 | 37.08489 | 31.28635 | 24954 ft | 331 kts | 304° |
| 2026-05-01 14:09 | 37.10006 | 31.26487 | 24935 ft | 326 kts | 310° |
| 2026-05-01 14:09 | 37.11726 | 31.24704 | 24931 ft | 320 kts | 318° |
| 2026-05-01 14:09 | 37.13565 | 31.23194 | 24934 ft | 309 kts | 319° |
| 2026-05-01 14:09 | 37.15263 | 31.21668 | 24943 ft | 293 kts | 314° |
| 2026-05-01 14:10 | 37.16770 | 31.20019 | 24948 ft | 285 kts | 309° |
| 2026-05-01 14:10 | 37.18186 | 31.18277 | 24952 ft | 288 kts | 309° |
| 2026-05-01 14:10 | 37.19747 | 31.16605 | 24952 ft | 298 kts | 317° |
| 2026-05-01 14:10 | 37.21544 | 31.15313 | 24934 ft | 304 kts | 328° |
| 2026-05-01 14:11 | 37.23561 | 31.14359 | 24684 ft | 311 kts | 335° |
| 2026-05-01 14:11 | 37.27864 | 31.13410 | 24169 ft | 319 kts | 349° |
| 2026-05-01 14:11 | 37.30094 | 31.13459 | 23912 ft | 325 kts | 358° |
| 2026-05-01 14:12 | 37.32333 | 31.13911 | 23657 ft | 332 kts | 6° |
| 2026-05-01 14:12 | 37.34538 | 31.14796 | 23397 ft | 337 kts | 16° |
| 2026-05-01 14:12 | 37.36651 | 31.16145 | 23132 ft | 340 kts | 26° |
| 2026-05-01 14:12 | 37.38551 | 31.17923 | 22841 ft | 342 kts | 38° |
| 2026-05-01 14:13 | 37.40158 | 31.20104 | 22595 ft | 345 kts | 50° |
| 2026-05-01 14:13 | 37.40718 | 31.21099 | 22495 ft | 347 kts | 56° |